Create Custom Reports and Graphics: Custom Report

Belmont 8000'

Squaw Valley

5/20/24 9:15 PM (-07:00)
Updated Every 15 Minutes
Temp 38.6 °F   0.8
RH 39 %   49
Dew Pt 15.7 °F   20.3
Wet Bulb 29.9 °F   7.8
Wind Dir NNE | 24 °
Wind Spd 6.1 mph   0.4
Wind Gust 14.3 mph   1.8
WindChill 34.3 °F   1.2
Daily Min Temp 31.0 °F   8.4
Daily Max Temp 51.2 °F   0.5
Latest Rain 0.00 In
Daily Rain 0.00 In
New Snow 0.0 in
SnowDepth 154.0 in

Last 24 Hours

OV-Belmont 8000'

Hourly Data | America/Los_Angeles
as of 5/20/24 9:27 PM PDT
Date & Time Temp (°F) RH (%) Dew Pt (°F) Wet Bulb (°F) Wind Dir (°) Wind Spd (mph) Wind Gust (mph) WindChill (°F) Latest Rain (In) New Snow (in) SnowDepth (in) Daily Min Temp (°F) Daily Max Temp (°F) Daily Rain (In)
5/20/24 - 2100 38.2 41 16.4 29.8 NNE | 26 6.6 16.4 34.8 0.00 0.0 154.0 31.0 51.2 0.00
5/20/24 - 2000 39.7 46 20.5 31.8 N | 10 5.6 13.6 37.2 0.00 0.0 154.0 31.0 51.2 0.00
5/20/24 - 1900 41.6 52 25.4 34.4 NNE | 15 5.0 10.6 39.6 0.00 0.0 154.0 31.0 51.2 0.00
5/20/24 - 1800 42.8 66 32.2 37.6 SW | 236 9.0 16.5 38.1 0.00 0.0 154.0 31.0 51.2 0.00
5/20/24 - 1700 43.9 61 31.5 37.9 SW | 227 7.4 14.2 40.8 0.00 0.0 154.0 31.0 51.2 0.00
5/20/24 - 1600 45.3 60 32.2 38.9 SW | 227 8.3 14.4 42.6 0.00 0.0 154.0 31.0 51.2 0.00
5/20/24 - 1500 46.4 59 33.0 39.7 SW | 222 8.2 15.6 44.8 0.00 0.0 154.0 31.0 51.2 0.00
5/20/24 - 1400 51.0 48 31.9 41.5 SW | 233 6.2 13.2 45.5 0.00 0.0 154.0 31.0 51.2 0.00
5/20/24 - 1300 48.5 47 29.2 39.2 SW | 225 5.7 12.6 45.7 0.00 0.0 154.0 31.0 50.7 0.00
5/20/24 - 1200 49.4 40 25.8 38.5 SW | 227 4.3 10.6 46.0 0.00 0.0 154.0 31.0 49.4 0.00
5/20/24 - 1100 46.7 42 24.6 36.8 SE | 134 2.9 8.1 41.5 0.00 0.0 154.0 31.0 47.1 0.00
5/20/24 - 1000 39.6 60 26.8 33.9 S | 178 1.6 4.5 39.0 0.00 0.0 154.0 31.0 41.6 0.00
5/20/24 - 0900 38.1 67 28.3 33.6 ENE | 72 1.9 6.2 35.5 0.00 0.0 154.0 31.0 40.4 0.00
5/20/24 - 0800 35.5 71 26.9 31.7 SE | 133 0.9 3.3 35.3 0.00 0.0 154.0 31.0 40.4 0.00
5/20/24 - 0700 33.1 79 27.3 30.6 SW | 221 0.5 2.8 32.8 0.00 0.0 154.0 31.0 40.4 0.00
5/20/24 - 0600 31.8 80 26.2 29.4 ENE | 68 0.7 4.3 32.2 0.00 0.0 154.0 31.0 40.4 0.00
5/20/24 - 0500 33.4 88 30.3 32.0 N | 1 0.7 3.8 34.4 0.00 0.0 154.0 33.4 40.4 0.00
5/20/24 - 0400 35.9 80 30.3 33.3 NW | 325 1.1 3.3 35.6 0.00 0.0 154.0 34.9 40.4 0.00
5/20/24 - 0300 36.1 71 27.5 32.3 N | 6 5.0 10.0 33.4 0.00 0.0 154.0 36.1 40.4 0.00
5/20/24 - 0200 36.9 48 19.1 29.9 N | 3 3.1 6.0 36.0 0.00 0.0 154.0 36.7 40.4 0.00
5/20/24 - 0100 38.5 34 12.2 28.9 WNW | 301 2.9 6.9 37.6 0.00 0.0 154.0 37.4 40.4 0.00
5/20/24 - 0000 39.0 29 9.6 28.7 W | 259 4.3 9.1 36.4 0.00 0.0 154.0 37.1 50.7 0.00
5/19/24 - 2300 38.7 60 26.1 33.2 W | 266 5.4 9.0 34.6 0.00 0.0 154.0 37.1 50.7 0.00
5/19/24 - 2200 38.0 93 36.1 37.1 W | 267 4.2 12.5 36.8 0.00 0.0 154.0 38.0 50.7 0.00
5/19/24 - 2100 39.6 89 36.6 38.1 SW | 235 9.0 15.4 34.6 0.00 0.0 154.0 39.5 50.7 0.00
Max 51.0 93 36.6 41.5 - 9.0 16.5 46.0 0.00 0.0 154.0 39.5 51.2 0.00
Avg 40.3 60 26.7 34.4 - 4.4 9.7 38.0 0.00 - - - - -
Min 31.8 29 9.6 28.7 - 0.5 2.8 32.2 0.00 0.0 154.0 31.0 40.4 0.00
Total - - - - - - - - 0.00 - - - - -

Last 30 Days

OV-Belmont 8000'

Daily Data | America/Los_Angeles
as of 5/20/24 9:27 PM PDT
Date Daily Max Temp (°F) Time of Max Temp Daily Min Temp (°F) Time of Min Temp Daily Rain (In) New Snow (in) SnowDepth (in) Wind Spd (mph) Daily Max Wind (mph) Time of Max Wind Max Wind Dir (°) Max RH (%) Min RH (%) Wet Bulb (°F) WetB Hrs <28F (hrs) MinBV Day (V)
5/19/24 50.7 1338 37.1 2212 0.00 0.0 154.0 10.4 25.4 1342 SSW | 209 93 29 39.7 0.0 12.8
5/18/24 61.0 1321 43.0 2218 0.00 0.0 154.0 5.7 24.1 1607 WNW | 302 95 29 44.1 0.0 12.9
5/17/24 62.8 1403 48.4 0516 0.00 0.0 154.0 5.8 16.6 0725 SW | 230 77 27 43.4 0.0 12.9
5/16/24 64.3 1224 47.3 0313 0.00 0.0 154.0 4.3 21.1 1829 WSW | 244 75 28 42.8 0.0 13.0
5/15/24 70.1 1642 46.4 0607 0.00 0.0 154.0 3.6 14.0 2031 NNE | 14 54 20 41.8 0.0 12.9
5/14/24 66.7 1318 45.7 0536 0.00 0.0 154.0 4.4 16.9 1847 WNW | 300 68 26 43.5 0.0 12.9
5/13/24 63.6 1239 45.1 0317 0.00 0.0 154.0 3.2 18.2 1719 WNW | 303 78 34 42.0 0.0 12.9
5/12/24 62.9 1250 45.4 0415 0.00 0.0 154.0 4.6 18.6 1748 SW | 233 70 28 41.7 0.0 12.9
5/11/24 64.6 1604 41.5 0600 0.00 0.0 154.0 4.3 14.7 1226 NNE | 26 62 26 39.2 0.0 12.9
5/10/24 55.5 1604 35.9 0558 0.00 0.0 154.0 5.9 23.2 0021 E | 83 72 28 36.2 0.0 12.9
5/9/24 48.2 1734 28.4 0552 0.00 0.0 154.0 9.7 31.4 2241 ENE | 75 81 41 31.9 7.3 13.0
5/8/24 40.9 1602 24.4 0511 0.00 0.0 154.0 11.0 35.0 2216 E | 90 70 37 26.3 15.3 13.0
5/7/24 54.8 1612 28.3 0256 0.00 0.0 154.0 7.8 28.1 0218 S | 188 76 24 29.2 13.1 13.0
5/6/24 38.3 1602 18.8 0447 0.00 0.0 154.0 10.2 30.2 1708 SW | 233 99 60 27.5 11.6 13.0
5/5/24 27.2 1331 16.0 0648 0.64 0.0 154.0 11.6 33.6 1538 SSW | 192 99 80 20.1 24.0 13.0
5/4/24 39.4 0008 16.9 2107 0.55 15.3 154.0 15.8 53.3 0718 ENE | 60 98 45 26.3 11.4 13.0
5/3/24 53.2 1250 32.7 0532 0.00 0.0 154.0 7.2 25.0 2357 SSE | 159 98 26 36.9 0.0 12.9
5/2/24 47.0 1449 33.9 0458 0.00 0.0 154.0 7.1 30.4 1532 W | 270 95 37 33.9 0.6 12.9
5/1/24 51.2 1720 25.7 0602 0.00 0.0 154.0 4.0 16.9 1818 NW | 324 70 18 29.0 9.1 12.9
4/30/24 45.5 1444 31.2 2331 0.00 0.0 154.0 8.9 23.7 1700 WNW | 296 53 10 27.3 13.3 13.0
4/29/24 44.1 1357 30.3 0600 0.00 0.0 154.0 10.3 25.2 1518 WSW | 238 93 15 30.6 4.1 13.0
4/28/24 46.8 1517 29.8 0448 0.00 0.0 154.0 6.5 21.8 1850 SW | 214 100 42 33.5 0.0 12.9
4/27/24 43.4 1509 23.7 0501 0.00 0.0 154.0 4.4 19.7 1707 WNW | 290 100 61 31.5 7.4 13.0
4/26/24 34.3 1428 25.7 2144 0.85 0.0 154.0 8.2 35.0 0017 SW | 235 100 98 29.5 6.5 13.0
4/25/24 43.7 1159 29.9 0601 0.19 0.0 154.0 7.4 30.0 2223 S | 191 100 40 31.2 6.2 12.9
4/24/24 46.7 1222 31.7 2158 0.00 0.0 154.0 8.3 23.0 0052 ENE | 71 97 36 34.3 1.5 12.9
4/23/24 51.1 1234 37.3 0001 0.25 0.0 154.0 7.1 21.5 1659 SW | 222 100 59 40.2 0.0 12.9
4/22/24 57.5 1307 43.0 2359 0.00 0.0 154.0 6.0 26.1 1434 SW | 219 68 22 39.2 0.0 13.0
4/21/24 60.6 1205 42.6 0126 0.00 0.0 154.0 4.8 17.8 1711 SW | 229 59 16 37.2 0.0 13.0
4/20/24 57.1 1528 40.5 0626 0.00 0.0 154.0 6.6 18.0 1417 WSW | 237 81 20 37.0 0.0 13.0
Max 70.1 - 48.4 - 0.85 15.3 154.0 15.8 53.3 - - 100 98 44.1 24.0 13.0
Avg - - - - - - - 7.2 - - - - - 34.9 - -
Min 27.2 - 16.0 - 0.00 0.0 154.0 3.2 14.0 - - 53 10 20.1 0.0 12.8
Calm: 0.0%
Calm: 0.0%